Time;durP1;ratioP1;P1;durP2;ratioP2;P2;SDS_P1;SDS_P2;PMS_P1;PMS_P2;Temp;Humidity;BMP_temperature;BMP_pressure;BME280_temperature;BME280_humidity;BME280_pressure;Samples;Min_cycle;Max_cycle;Signal;HPM_P1;HPM_P2
2023/04/19 00:00:30;;;;;;;15.03;13.20;;;;;;;;;;5229271;28;20078;-76
2023/04/19 00:03:01;;;;;;;18.03;13.77;;;;;;;;;;5227647;28;20029;-76
2023/04/19 00:05:33;;;;;;;13.83;12.43;;;;;;;;;;5229441;28;20067;-76
2023/04/19 00:08:04;;;;;;;15.43;13.23;;;;;;;;;;5228810;28;20013;-76
2023/04/19 00:10:37;;;;;;;13.87;12.57;;;;;;;;;;5227320;28;20028;-76
2023/04/19 00:13:09;;;;;;;14.10;12.53;;;;;;;;;;5228609;28;20075;-76
2023/04/19 00:15:40;;;;;;;14.57;13.00;;;;;;;;;;5229646;28;20381;-76
2023/04/19 00:18:11;;;;;;;15.00;13.53;;;;;;;;;;5229246;28;20054;-76
2023/04/19 00:20:43;;;;;;;14.93;13.20;;;;;;;;;;5229344;28;20075;-76
2023/04/19 00:23:14;;;;;;;15.13;13.60;;;;;;;;;;5228582;28;20462;-76
2023/04/19 00:25:47;;;;;;;14.73;13.23;;;;;;;;;;5229359;28;20473;-75
2023/04/19 00:28:18;;;;;;;15.53;13.83;;;;;;;;;;5228468;28;20025;-75
2023/04/19 00:30:49;;;;;;;15.17;13.67;;;;;;;;;;5231311;28;20469;-75
2023/04/19 00:33:49;;;;;;;15.10;13.50;;;;;;;;;;5232320;28;20021;-75
2023/04/19 00:36:20;;;;;;;15.30;13.70;;;;;;;;;;5231377;28;20370;-75
2023/04/19 00:38:52;;;;;;;15.00;13.33;;;;;;;;;;5233144;28;20029;-75
2023/04/19 00:41:23;;;;;;;15.23;13.63;;;;;;;;;;5229788;28;20447;-75
2023/04/19 00:43:54;;;;;;;14.97;13.07;;;;;;;;;;5232520;28;20358;-75
2023/04/19 00:46:26;;;;;;;14.40;12.73;;;;;;;;;;5232650;28;20149;-75
2023/04/19 00:48:58;;;;;;;16.13;14.43;;;;;;;;;;5232678;28;20664;-75
2023/04/19 00:51:30;;;;;;;15.43;13.93;;;;;;;;;;5232390;28;20022;-75
2023/04/19 00:54:01;;;;;;;14.70;13.00;;;;;;;;;;5232070;28;20014;-75
2023/04/19 00:56:33;;;;;;;16.87;15.03;;;;;;;;;;5231345;28;20028;-75
2023/04/19 00:59:05;;;;;;;15.33;13.63;;;;;;;;;;5232153;28;20066;-75
2023/04/19 01:01:37;;;;;;;16.50;14.40;;;;;;;;;;5232601;28;20074;-76
2023/04/19 01:04:08;;;;;;;18.00;14.67;;;;;;;;;;5232550;28;20112;-76
2023/04/19 01:06:40;;;;;;;17.20;14.97;;;;;;;;;;5231386;28;20014;-76
2023/04/19 01:09:11;;;;;;;16.73;15.00;;;;;;;;;;5231755;28;20045;-76
2023/04/19 01:11:42;;;;;;;16.77;14.53;;;;;;;;;;5231087;28;20024;-76
2023/04/19 01:14:13;;;;;;;20.37;14.93;;;;;;;;;;5225728;28;20105;-76
2023/04/19 01:16:45;;;;;;;19.57;14.33;;;;;;;;;;5232319;28;20032;-76
2023/04/19 01:19:17;;;;;;;15.40;13.80;;;;;;;;;;5231332;28;20029;-77
2023/04/19 01:21:48;;;;;;;15.37;13.77;;;;;;;;;;5231687;28;20029;-76
2023/04/19 01:24:20;;;;;;;15.70;14.00;;;;;;;;;;5231182;28;20469;-76
2023/04/19 01:26:51;;;;;;;16.93;14.57;;;;;;;;;;5230958;28;20023;-76
2023/04/19 01:29:22;;;;;;;17.20;14.83;;;;;;;;;;5231751;28;20022;-76
2023/04/19 01:31:53;;;;;;;17.43;14.50;;;;;;;;;;5231693;28;20017;-76
2023/04/19 01:34:24;;;;;;;17.07;14.70;;;;;;;;;;5231704;28;20109;-75
2023/04/19 01:36:56;;;;;;;18.17;14.80;;;;;;;;;;5231685;28;20032;-75
2023/04/19 01:39:27;;;;;;;15.90;14.20;;;;;;;;;;5231254;28;20052;-75
2023/04/19 01:41:58;;;;;;;17.40;14.87;;;;;;;;;;5230215;28;20032;-76
2023/04/19 01:44:29;;;;;;;19.37;15.17;;;;;;;;;;5233810;28;20060;-76
2023/04/19 01:47:01;;;;;;;17.43;14.43;;;;;;;;;;5240854;28;20065;-76
2023/04/19 01:49:32;;;;;;;17.37;15.43;;;;;;;;;;5231520;27;20032;-76
2023/04/19 01:52:03;;;;;;;15.63;14.03;;;;;;;;;;5230533;28;20372;-76
2023/04/19 01:54:34;;;;;;;17.47;14.87;;;;;;;;;;5229363;28;20021;-76
2023/04/19 01:57:06;;;;;;;16.17;14.47;;;;;;;;;;5230134;28;20082;-76
2023/04/19 01:59:37;;;;;;;16.57;14.63;;;;;;;;;;5231151;28;20021;-76
2023/04/19 02:02:08;;;;;;;15.93;14.20;;;;;;;;;;5230945;28;20067;-76
2023/04/19 02:04:39;;;;;;;20.93;14.43;;;;;;;;;;5230398;28;20018;-76
2023/04/19 02:07:11;;;;;;;18.10;15.27;;;;;;;;;;5230676;28;20025;-76
2023/04/19 02:09:42;;;;;;;21.40;16.30;;;;;;;;;;5230554;28;20538;-76
2023/04/19 02:12:13;;;;;;;16.87;14.93;;;;;;;;;;5229218;28;20113;-76
2023/04/19 02:14:44;;;;;;;17.60;14.87;;;;;;;;;;5231307;28;20103;-77
2023/04/19 02:17:16;;;;;;;16.50;14.37;;;;;;;;;;5228965;28;20028;-77
2023/04/19 02:19:47;;;;;;;17.13;14.30;;;;;;;;;;5231054;28;20033;-76
2023/04/19 02:22:19;;;;;;;17.73;15.20;;;;;;;;;;5230667;28;20045;-77
2023/04/19 02:24:50;;;;;;;21.00;14.97;;;;;;;;;;5230458;28;20029;-77
2023/04/19 02:27:21;;;;;;;17.20;14.80;;;;;;;;;;5229403;28;20176;-76
2023/04/19 02:29:52;;;;;;;19.50;14.83;;;;;;;;;;5229446;28;20024;-77
2023/04/19 02:32:23;;;;;;;14.87;13.33;;;;;;;;;;5230358;28;20061;-77
2023/04/19 02:34:55;;;;;;;17.70;15.27;;;;;;;;;;5230957;28;20025;-77
2023/04/19 02:37:26;;;;;;;19.50;14.53;;;;;;;;;;5230381;27;20022;-77
2023/04/19 02:39:57;;;;;;;19.80;13.90;;;;;;;;;;5230735;28;20033;-76
2023/04/19 02:42:29;;;;;;;18.47;15.10;;;;;;;;;;5229159;28;20029;-76
2023/04/19 02:45:00;;;;;;;16.90;14.47;;;;;;;;;;5230583;27;20021;-76
2023/04/19 02:47:31;;;;;;;21.47;14.70;;;;;;;;;;5230417;28;20029;-76
2023/04/19 02:50:03;;;;;;;15.73;14.07;;;;;;;;;;5229738;28;20056;-76
2023/04/19 02:52:34;;;;;;;18.90;14.40;;;;;;;;;;5229253;28;20034;-76
2023/04/19 02:55:05;;;;;;;16.93;14.90;;;;;;;;;;5230476;28;20101;-76
2023/04/19 02:57:36;;;;;;;22.43;15.60;;;;;;;;;;5229456;28;20230;-76
2023/04/19 03:00:09;;;;;;;17.93;15.33;;;;;;;;;;5228436;28;20040;-76
2023/04/19 03:02:42;;;;;;;16.37;14.43;;;;;;;;;;5229893;27;20041;-76
2023/04/19 03:05:13;;;;;;;15.97;13.70;;;;;;;;;;5230380;28;20055;-76
2023/04/19 03:07:44;;;;;;;18.37;13.87;;;;;;;;;;5228310;28;20060;-76
2023/04/19 03:10:16;;;;;;;16.80;14.33;;;;;;;;;;5228294;28;20041;-76
2023/04/19 03:12:47;;;;;;;16.67;14.80;;;;;;;;;;5228645;27;20381;-76
2023/04/19 03:15:19;;;;;;;17.20;13.90;;;;;;;;;;5229863;28;20018;-76
2023/04/19 03:17:50;;;;;;;17.37;13.70;;;;;;;;;;5230257;28;20014;-76
2023/04/19 03:20:21;;;;;;;14.87;13.27;;;;;;;;;;5229454;28;20021;-76
2023/04/19 03:22:52;;;;;;;18.90;12.87;;;;;;;;;;5228869;28;20542;-76
2023/04/19 03:25:23;;;;;;;15.83;13.30;;;;;;;;;;5229928;28;20104;-76
2023/04/19 03:27:55;;;;;;;16.40;13.30;;;;;;;;;;5229321;28;20025;-76
2023/04/19 03:30:26;;;;;;;16.87;13.80;;;;;;;;;;5228680;28;20025;-76
2023/04/19 03:32:58;;;;;;;15.67;13.60;;;;;;;;;;5229873;28;20747;-76
2023/04/19 03:35:31;;;;;;;18.20;13.60;;;;;;;;;;5229836;28;20021;-76
2023/04/19 03:38:02;;;;;;;17.07;13.80;;;;;;;;;;5230029;28;20026;-76
2023/04/19 03:40:35;;;;;;;15.37;12.67;;;;;;;;;;5229564;28;20026;-76
2023/04/19 03:43:07;;;;;;;19.45;15.18;;;;;;;;;;5229038;28;20407;-76
2023/04/19 03:45:38;;;;;;;16.00;13.43;;;;;;;;;;5229656;28;20021;-76
2023/04/19 03:48:09;;;;;;;15.03;12.97;;;;;;;;;;5228934;28;20029;-76
2023/04/19 03:50:40;;;;;;;17.17;13.73;;;;;;;;;;5229752;28;20018;-76
2023/04/19 03:53:12;;;;;;;15.10;12.97;;;;;;;;;;5229378;28;20132;-76
2023/04/19 03:55:43;;;;;;;18.47;13.13;;;;;;;;;;5229718;28;20025;-76
2023/04/19 03:58:15;;;;;;;14.40;12.83;;;;;;;;;;5227496;28;20014;-76
2023/04/19 04:00:46;;;;;;;14.57;12.03;;;;;;;;;;5229019;28;20028;-76
2023/04/19 04:03:17;;;;;;;14.60;12.33;;;;;;;;;;5229171;28;20018;-77
2023/04/19 04:05:48;;;;;;;14.50;12.23;;;;;;;;;;5222455;28;20022;-75
2023/04/19 04:08:20;;;;;;;13.50;12.07;;;;;;;;;;5227305;28;20042;-76
2023/04/19 04:10:53;;;;;;;13.77;11.80;;;;;;;;;;5228096;28;20020;-76
2023/04/19 04:13:24;;;;;;;14.83;11.73;;;;;;;;;;5228605;28;20033;-76
2023/04/19 04:15:55;;;;;;;15.87;12.30;;;;;;;;;;5228922;28;20569;-76
2023/04/19 04:18:27;;;;;;;14.33;12.20;;;;;;;;;;5229074;28;20706;-76
2023/04/19 04:20:58;;;;;;;12.93;11.53;;;;;;;;;;5224154;28;20041;-76
2023/04/19 04:23:29;;;;;;;14.40;11.57;;;;;;;;;;5229067;28;20364;-76
2023/04/19 04:26:01;;;;;;;14.00;11.07;;;;;;;;;;5228006;28;20030;-76
2023/04/19 04:28:32;;;;;;;12.83;11.53;;;;;;;;;;5227556;28;20071;-76
2023/04/19 04:31:04;;;;;;;15.03;11.53;;;;;;;;;;5229003;28;20354;-77
2023/04/19 04:33:36;;;;;;;16.60;12.03;;;;;;;;;;5228291;28;20022;-76
2023/04/19 04:36:07;;;;;;;13.20;11.23;;;;;;;;;;5229403;28;20019;-76
2023/04/19 04:38:38;;;;;;;14.53;11.70;;;;;;;;;;5228580;27;20102;-76
2023/04/19 04:41:10;;;;;;;13.43;10.80;;;;;;;;;;5227477;28;20108;-76
2023/04/19 04:43:42;;;;;;;13.80;11.67;;;;;;;;;;5229117;28;20018;-76
2023/04/19 04:46:13;;;;;;;13.47;10.47;;;;;;;;;;5228322;28;20059;-77
2023/04/19 04:48:44;;;;;;;13.40;11.43;;;;;;;;;;5229131;28;20430;-77
2023/04/19 04:51:16;;;;;;;13.77;11.00;;;;;;;;;;5229138;28;20018;-77
2023/04/19 04:53:47;;;;;;;16.03;10.93;;;;;;;;;;5228697;28;20016;-77
2023/04/19 04:56:18;;;;;;;13.87;10.87;;;;;;;;;;5227959;28;20013;-77
2023/04/19 04:58:49;;;;;;;12.13;10.33;;;;;;;;;;5228609;28;20026;-77
2023/04/19 05:01:21;;;;;;;10.80;9.70;;;;;;;;;;5228538;28;20021;-77
2023/04/19 05:03:52;;;;;;;10.40;8.90;;;;;;;;;;5227292;28;20036;-77
2023/04/19 05:06:24;;;;;;;11.20;9.37;;;;;;;;;;5228062;28;20048;-76
2023/04/19 05:08:55;;;;;;;12.67;9.17;;;;;;;;;;5219097;28;20069;-76
2023/04/19 05:11:27;;;;;;;12.50;9.33;;;;;;;;;;5224875;28;20021;-76
2023/04/19 05:13:58;;;;;;;9.30;8.30;;;;;;;;;;5228474;28;20013;-77
2023/04/19 05:16:29;;;;;;;11.07;8.20;;;;;;;;;;5228797;28;20018;-76
2023/04/19 05:19:01;;;;;;;14.20;9.03;;;;;;;;;;5230231;27;20419;-76
2023/04/19 05:21:33;;;;;;;15.07;8.30;;;;;;;;;;5231816;28;20025;-77
2023/04/19 05:24:04;;;;;;;15.97;8.87;;;;;;;;;;5230325;28;20410;-77
2023/04/19 05:26:35;;;;;;;8.80;7.80;;;;;;;;;;5230589;28;20025;-77
2023/04/19 05:29:06;;;;;;;9.13;8.23;;;;;;;;;;5231498;28;20489;-77
2023/04/19 05:31:38;;;;;;;10.37;7.73;;;;;;;;;;5230684;28;20021;-76
2023/04/19 05:34:09;;;;;;;11.47;8.53;;;;;;;;;;5230775;28;20017;-77
2023/04/19 05:36:40;;;;;;;9.23;8.13;;;;;;;;;;5232051;28;20033;-77
2023/04/19 05:39:12;;;;;;;9.53;8.27;;;;;;;;;;5231520;28;20036;-77
2023/04/19 05:41:43;;;;;;;11.07;8.13;;;;;;;;;;5216973;28;20559;-77
2023/04/19 05:44:14;;;;;;;10.67;8.23;;;;;;;;;;5210643;28;20021;-77
2023/04/19 05:46:45;;;;;;;11.30;8.37;;;;;;;;;;5219039;28;20066;-77
2023/04/19 05:49:17;;;;;;;13.60;8.57;;;;;;;;;;5230461;28;20037;-77
2023/04/19 05:51:48;;;;;;;11.33;8.57;;;;;;;;;;5216826;28;20038;-76
2023/04/19 05:54:20;;;;;;;9.37;8.20;;;;;;;;;;5210886;28;20093;-77
2023/04/19 05:56:51;;;;;;;9.63;8.47;;;;;;;;;;5312352;27;20097;-77
2023/04/19 05:59:22;;;;;;;9.17;7.90;;;;;;;;;;5218050;28;20034;-77
2023/04/19 06:01:55;;;;;;;11.63;8.10;;;;;;;;;;5214517;28;20025;-77
2023/04/19 06:04:26;;;;;;;10.13;8.60;;;;;;;;;;5210066;28;20086;-77
2023/04/19 06:06:57;;;;;;;9.90;8.10;;;;;;;;;;5210552;28;20026;-77
2023/04/19 06:09:28;;;;;;;13.20;8.80;;;;;;;;;;5210087;28;20033;-77
2023/04/19 06:12:18;;;;;;;11.07;8.97;;;;;;;;;;5224625;28;20504;-76
2023/04/19 06:14:50;;;;;;;10.17;8.53;;;;;;;;;;5223864;28;20064;-76
2023/04/19 06:17:23;;;;;;;10.03;8.70;;;;;;;;;;5210258;28;20026;-76
2023/04/19 06:23:04;;;;;;;11.37;8.27;;;;;;;;;;5220936;28;20033;-76
2023/04/19 06:25:35;;;;;;;9.10;8.10;;;;;;;;;;5329142;27;20026;-76
2023/04/19 06:28:06;;;;;;;10.90;7.67;;;;;;;;;;5218034;28;20508;-77
2023/04/19 06:30:38;;;;;;;9.73;7.43;;;;;;;;;;5229589;28;20018;-76
2023/04/19 06:33:09;;;;;;;9.27;7.70;;;;;;;;;;5227926;27;20144;-77
2023/04/19 06:35:40;;;;;;;9.33;6.77;;;;;;;;;;5230524;28;20017;-77
2023/04/19 06:38:11;;;;;;;9.30;7.30;;;;;;;;;;5230318;28;20021;-77
2023/04/19 06:40:42;;;;;;;8.33;7.27;;;;;;;;;;5229477;28;20495;-77
2023/04/19 06:43:14;;;;;;;8.30;5.70;;;;;;;;;;5229243;28;20025;-77
2023/04/19 06:45:45;;;;;;;9.17;7.27;;;;;;;;;;5229990;28;20028;-77
2023/04/19 06:48:16;;;;;;;11.10;7.00;;;;;;;;;;5224656;28;20034;-76
2023/04/19 06:50:48;;;;;;;11.30;6.87;;;;;;;;;;5214296;28;20457;-77
2023/04/19 06:53:19;;;;;;;8.70;6.73;;;;;;;;;;5218024;28;20032;-77
2023/04/19 06:55:56;;;;;;;9.10;6.20;;;;;;;;;;5229771;28;20488;-78
2023/04/19 06:58:27;;;;;;;7.80;6.03;;;;;;;;;;5227157;28;20112;-78
2023/04/19 07:01:00;;;;;;;11.10;6.47;;;;;;;;;;5230093;28;20109;-77
2023/04/19 07:03:31;;;;;;;9.33;6.30;;;;;;;;;;5228706;28;20456;-77
2023/04/19 07:06:03;;;;;;;9.53;6.93;;;;;;;;;;5224306;28;20135;-78
2023/04/19 07:08:34;;;;;;;8.90;6.00;;;;;;;;;;5212096;28;20106;-77
2023/04/19 07:11:06;;;;;;;8.70;5.60;;;;;;;;;;5224197;28;20037;-77
2023/04/19 07:13:37;;;;;;;8.63;6.20;;;;;;;;;;5228605;28;20020;-78
2023/04/19 07:16:08;;;;;;;10.97;5.90;;;;;;;;;;5229733;28;20118;-78
2023/04/19 07:18:40;;;;;;;12.10;6.73;;;;;;;;;;5228507;28;20113;-78
2023/04/19 07:21:12;;;;;;;7.37;5.37;;;;;;;;;;5229288;28;20033;-77
2023/04/19 07:23:43;;;;;;;9.27;6.47;;;;;;;;;;5228833;28;20013;-75
2023/04/19 07:26:14;;;;;;;8.73;5.83;;;;;;;;;;5223586;28;20024;-76
2023/04/19 07:28:45;;;;;;;10.13;6.23;;;;;;;;;;5208616;28;20026;-76
2023/04/19 07:31:17;;;;;;;6.90;5.27;;;;;;;;;;5208469;28;20458;-76
2023/04/19 07:33:48;;;;;;;7.00;5.30;;;;;;;;;;5214556;28;20052;-76
2023/04/19 07:36:20;;;;;;;6.70;5.87;;;;;;;;;;5229919;28;20480;-76
2023/04/19 07:38:51;;;;;;;8.97;5.70;;;;;;;;;;5228841;28;20039;-76
2023/04/19 07:41:22;;;;;;;7.47;5.60;;;;;;;;;;5226603;28;20029;-76
2023/04/19 07:43:54;;;;;;;7.57;5.30;;;;;;;;;;5212557;27;20014;-76
2023/04/19 07:46:25;;;;;;;9.37;5.33;;;;;;;;;;5218964;28;20022;-76
2023/04/19 07:48:56;;;;;;;8.27;5.53;;;;;;;;;;5229560;28;20029;-77
2023/04/19 07:51:27;;;;;;;6.80;5.13;;;;;;;;;;5228563;28;20108;-77
2023/04/19 07:53:59;;;;;;;7.47;5.23;;;;;;;;;;5228945;28;20027;-77
2023/04/19 07:56:31;;;;;;;7.67;4.93;;;;;;;;;;5228043;28;20078;-77
2023/04/19 07:59:02;;;;;;;10.73;5.20;;;;;;;;;;5228895;28;20026;-77
2023/04/19 08:01:34;;;;;;;10.23;5.33;;;;;;;;;;5228224;28;20033;-77
2023/04/19 08:04:05;;;;;;;8.37;4.57;;;;;;;;;;5227989;28;20100;-77
2023/04/19 08:06:38;;;;;;;13.10;5.80;;;;;;;;;;5226963;28;20063;-77
2023/04/19 08:09:09;;;;;;;9.50;5.33;;;;;;;;;;5226952;28;20128;-77
2023/04/19 08:11:41;;;;;;;8.70;5.10;;;;;;;;;;5227242;28;20093;-77
2023/04/19 08:14:13;;;;;;;9.80;4.72;;;;;;;;;;5226575;28;20167;-77
2023/04/19 08:16:44;;;;;;;6.93;5.22;;;;;;;;;;5229283;28;20124;-77
2023/04/19 08:19:15;;;;;;;7.05;4.65;;;;;;;;;;5229093;28;20380;-77
2023/04/19 08:21:47;;;;;;;6.90;4.75;;;;;;;;;;5229041;28;20021;-77
2023/04/19 08:24:18;;;;;;;6.97;4.72;;;;;;;;;;5228341;28;20508;-77
2023/04/19 08:26:52;;;;;;;9.73;5.00;;;;;;;;;;5228468;28;20418;-77
2023/04/19 08:29:23;;;;;;;9.80;4.30;;;;;;;;;;5228402;28;20030;-77
2023/04/19 08:31:55;;;;;;;6.65;4.70;;;;;;;;;;5227940;28;20029;-77
2023/04/19 08:34:26;;;;;;;7.05;4.70;;;;;;;;;;5228910;28;20022;-77
2023/04/19 08:36:58;;;;;;;8.80;4.82;;;;;;;;;;5228672;28;20041;-77
2023/04/19 08:39:30;;;;;;;6.05;4.75;;;;;;;;;;5228769;27;20070;-77
2023/04/19 08:42:05;;;;;;;11.40;4.85;;;;;;;;;;5228079;28;20055;-75
2023/04/19 08:44:39;;;;;;;7.00;4.80;;;;;;;;;;5228215;28;20029;-76
2023/04/19 08:47:11;;;;;;;7.70;5.10;;;;;;;;;;5227248;28;20030;-77
2023/04/19 08:49:44;;;;;;;8.32;4.53;;;;;;;;;;5226444;28;20025;-77
2023/04/19 08:52:16;;;;;;;7.93;4.70;;;;;;;;;;5210411;28;20098;-77
2023/04/19 08:54:47;;;;;;;10.57;4.88;;;;;;;;;;5211104;28;20101;-77
2023/04/19 08:57:19;;;;;;;7.10;5.25;;;;;;;;;;5210503;28;20100;-77
2023/04/19 08:59:54;;;;;;;7.80;4.25;;;;;;;;;;5211169;28;20083;-76
2023/04/19 09:02:26;;;;;;;6.95;4.55;;;;;;;;;;5209721;28;20117;-77
2023/04/19 09:04:58;;;;;;;6.65;4.45;;;;;;;;;;5211637;28;20552;-77
2023/04/19 09:07:29;;;;;;;5.70;4.55;;;;;;;;;;5210808;28;20094;-76
2023/04/19 09:10:08;;;;;;;6.95;4.50;;;;;;;;;;5210247;28;20417;-76
2023/04/19 09:12:39;;;;;;;9.18;4.93;;;;;;;;;;5210857;28;20231;-77
2023/04/19 09:15:11;;;;;;;9.70;4.20;;;;;;;;;;5210758;28;20353;-77
2023/04/19 09:17:43;;;;;;;4.88;4.00;;;;;;;;;;5218810;28;20013;-76
2023/04/19 09:20:14;;;;;;;5.55;3.78;;;;;;;;;;5246978;27;20062;-76
2023/04/19 09:23:01;;;;;;;4.97;3.28;;;;;;;;;;5258645;27;20053;-76
2023/04/19 09:25:33;;;;;;;5.13;3.50;;;;;;;;;;5226543;28;20022;-76
2023/04/19 09:28:11;;;;;;;4.97;3.35;;;;;;;;;;5230046;28;20040;-76
2023/04/19 09:30:42;;;;;;;7.88;3.45;;;;;;;;;;5229511;28;20483;-76
2023/04/19 09:33:21;;;;;;;4.75;3.20;;;;;;;;;;5228032;28;20021;-75
2023/04/19 09:35:53;;;;;;;5.18;3.20;;;;;;;;;;5228235;28;20101;-76
2023/04/19 09:38:25;;;;;;;5.13;3.00;;;;;;;;;;5228535;27;20163;-75
2023/04/19 09:41:07;;;;;;;4.90;2.70;;;;;;;;;;5227798;28;20032;-76
2023/04/19 09:43:38;;;;;;;3.92;2.60;;;;;;;;;;5229749;28;20028;-75
2023/04/19 09:46:28;;;;;;;4.85;3.10;;;;;;;;;;5227891;28;20029;-76
2023/04/19 09:49:15;;;;;;;7.38;3.22;;;;;;;;;;5229549;28;20037;-76
2023/04/19 09:51:46;;;;;;;4.53;2.83;;;;;;;;;;5229138;28;21056;-76
2023/04/19 09:54:19;;;;;;;4.43;2.95;;;;;;;;;;5227872;28;20108;-76
2023/04/19 09:56:51;;;;;;;8.73;3.17;;;;;;;;;;5228653;28;20087;-76
2023/04/19 09:59:23;;;;;;;4.80;2.78;;;;;;;;;;5228138;28;20017;-75
2023/04/19 10:01:55;;;;;;;5.22;3.13;;;;;;;;;;5228582;28;20029;-76
2023/04/19 10:04:26;;;;;;;6.15;2.85;;;;;;;;;;5228550;28;20106;-76
2023/04/19 10:06:58;;;;;;;5.97;3.20;;;;;;;;;;5314723;27;20048;-75
2023/04/19 10:09:29;;;;;;;5.45;2.70;;;;;;;;;;5211585;28;20261;-75
2023/04/19 10:12:01;;;;;;;4.55;2.35;;;;;;;;;;5228462;28;20020;-75
2023/04/19 10:14:34;;;;;;;5.28;2.60;;;;;;;;;;5214950;28;20014;-76
2023/04/19 10:17:06;;;;;;;4.50;2.40;;;;;;;;;;5227718;28;20017;-76
2023/04/19 10:19:39;;;;;;;6.13;2.53;;;;;;;;;;5227882;28;20078;-76
2023/04/19 10:22:10;;;;;;;3.45;2.65;;;;;;;;;;5228410;28;20024;-76
2023/04/19 10:25:02;;;;;;;7.65;2.60;;;;;;;;;;5228583;28;20021;-75
2023/04/19 10:27:33;;;;;;;5.57;2.60;;;;;;;;;;5227854;28;20033;-75
2023/04/19 10:30:09;;;;;;;5.55;2.72;;;;;;;;;;5228253;28;20079;-75
2023/04/19 10:32:42;;;;;;;6.05;3.03;;;;;;;;;;5228426;28;20062;-75
2023/04/19 10:35:20;;;;;;;4.45;2.20;;;;;;;;;;5209881;28;20296;-74
2023/04/19 10:38:11;;;;;;;4.50;2.05;;;;;;;;;;5228071;28;20894;-74
2023/04/19 10:40:59;;;;;;;8.57;2.17;;;;;;;;;;5225512;28;20026;-75
2023/04/19 10:43:34;;;;;;;7.03;1.80;;;;;;;;;;5227136;28;20078;-75
2023/04/19 10:46:06;;;;;;;4.38;1.98;;;;;;;;;;5227412;28;20408;-75
2023/04/19 10:48:39;;;;;;;6.53;1.95;;;;;;;;;;5224735;28;20013;-75
2023/04/19 10:51:14;;;;;;;4.25;2.13;;;;;;;;;;5227308;28;20017;-75
2023/04/19 10:53:46;;;;;;;3.85;1.83;;;;;;;;;;5226312;28;20100;-76
2023/04/19 10:56:19;;;;;;;4.93;1.95;;;;;;;;;;5227002;27;20018;-76
2023/04/19 10:59:00;;;;;;;7.22;1.92;;;;;;;;;;5225141;28;20113;-76
2023/04/19 11:01:38;;;;;;;6.20;1.70;;;;;;;;;;5226498;28;20037;-76
2023/04/19 11:04:22;;;;;;;3.92;1.40;;;;;;;;;;5225643;28;20033;-76
2023/04/19 11:06:54;;;;;;;6.90;1.50;;;;;;;;;;5226864;28;20029;-76
2023/04/19 11:09:40;;;;;;;3.78;1.67;;;;;;;;;;5224611;28;20061;-75
2023/04/19 11:12:12;;;;;;;8.25;1.90;;;;;;;;;;5226417;28;20108;-75
2023/04/19 11:14:46;;;;;;;2.80;1.40;;;;;;;;;;5226777;28;20104;-75
2023/04/19 11:17:25;;;;;;;6.53;1.63;;;;;;;;;;5227275;28;20488;-75
2023/04/19 11:19:57;;;;;;;8.07;1.70;;;;;;;;;;5227491;28;20454;-74
2023/04/19 11:22:30;;;;;;;7.20;2.00;;;;;;;;;;5226325;28;20029;-75
2023/04/19 11:25:05;;;;;;;5.18;1.98;;;;;;;;;;5227289;28;20122;-75
2023/04/19 11:27:37;;;;;;;4.68;1.50;;;;;;;;;;5227904;28;20173;-75
2023/04/19 11:30:10;;;;;;;1.60;1.50;;;;;;;;;;5227228;28;20064;-75
2023/04/19 11:32:54;;;;;;;5.47;1.90;;;;;;;;;;5227207;28;20022;-75
2023/04/19 11:35:27;;;;;;;4.38;2.20;;;;;;;;;;5227659;28;20467;-75
2023/04/19 11:37:58;;;;;;;6.57;2.00;;;;;;;;;;5227361;28;20377;-75
2023/04/19 11:40:30;;;;;;;3.97;2.05;;;;;;;;;;5226608;28;20021;-75
2023/04/19 11:43:02;;;;;;;9.30;2.20;;;;;;;;;;5228241;28;20286;-74
2023/04/19 11:45:35;;;;;;;6.97;2.72;;;;;;;;;;5227606;28;20021;-74
2023/04/19 11:48:11;;;;;;;9.30;2.42;;;;;;;;;;5227709;28;20033;-74
2023/04/19 11:50:43;;;;;;;3.22;2.20;;;;;;;;;;5227749;28;20061;-75
2023/04/19 11:53:16;;;;;;;5.93;2.40;;;;;;;;;;5225326;28;20041;-75
2023/04/19 11:55:49;;;;;;;6.68;3.03;;;;;;;;;;5205054;28;20473;-75
2023/04/19 11:58:24;;;;;;;9.57;3.35;;;;;;;;;;5222560;28;20252;-75
2023/04/19 12:00:57;;;;;;;3.75;2.15;;;;;;;;;;5226607;28;20029;-73
2023/04/19 12:03:28;;;;;;;8.27;2.17;;;;;;;;;;5224307;28;20025;-74
2023/04/19 12:06:02;;;;;;;5.35;2.03;;;;;;;;;;5226183;28;20349;-75
2023/04/19 12:08:54;;;;;;;5.40;2.00;;;;;;;;;;5227111;28;20489;-74
2023/04/19 12:11:42;;;;;;;6.22;2.15;;;;;;;;;;5225847;28;20033;-74
2023/04/19 12:14:15;;;;;;;5.57;2.15;;;;;;;;;;5225348;28;20465;-74
2023/04/19 12:17:01;;;;;;;5.90;2.67;;;;;;;;;;5220251;28;20028;-73
2023/04/19 12:19:37;;;;;;;6.20;2.03;;;;;;;;;;5227621;28;20033;-74
2023/04/19 12:22:08;;;;;;;7.73;1.83;;;;;;;;;;5227684;28;20461;-74
2023/04/19 12:24:40;;;;;;;7.13;2.40;;;;;;;;;;5225862;28;20150;-74
2023/04/19 12:27:11;;;;;;;4.87;1.60;;;;;;;;;;5229596;28;20033;-74
2023/04/19 12:29:42;;;;;;;6.83;2.17;;;;;;;;;;5230803;28;20097;-75
2023/04/19 12:32:14;;;;;;;5.03;2.10;;;;;;;;;;5219451;28;20018;-74
2023/04/19 12:34:46;;;;;;;5.40;2.27;;;;;;;;;;5230824;28;20028;-75
2023/04/19 12:37:17;;;;;;;4.57;2.07;;;;;;;;;;5229800;28;20024;-75
2023/04/19 12:39:48;;;;;;;3.07;1.97;;;;;;;;;;5227111;28;20025;-74
2023/04/19 12:42:19;;;;;;;6.17;2.20;;;;;;;;;;5230280;28;20021;-74
2023/04/19 12:44:50;;;;;;;3.40;1.90;;;;;;;;;;5230617;28;20021;-74
2023/04/19 12:47:22;;;;;;;4.23;2.20;;;;;;;;;;5230725;28;20808;-73
2023/04/19 12:49:54;;;;;;;6.77;1.87;;;;;;;;;;5222226;28;20446;-74
2023/04/19 12:52:26;;;;;;;4.90;2.37;;;;;;;;;;5226704;28;20070;-74
2023/04/19 12:54:57;;;;;;;3.03;2.27;;;;;;;;;;5227818;28;20469;-74
2023/04/19 12:57:29;;;;;;;9.80;2.57;;;;;;;;;;5230017;28;20539;-75
2023/04/19 13:00:00;;;;;;;6.20;2.30;;;;;;;;;;5229999;28;20028;-75
2023/04/19 13:02:32;;;;;;;5.10;2.20;;;;;;;;;;5228621;27;20067;-75
2023/04/19 13:05:05;;;;;;;3.77;1.90;;;;;;;;;;5229205;28;20049;-75
2023/04/19 13:07:36;;;;;;;4.60;1.87;;;;;;;;;;5228777;28;20455;-75
2023/04/19 13:10:07;;;;;;;8.30;2.27;;;;;;;;;;5227930;28;20057;-74
2023/04/19 13:12:38;;;;;;;9.63;2.20;;;;;;;;;;5230109;27;20030;-74
2023/04/19 13:15:10;;;;;;;3.30;1.90;;;;;;;;;;5229954;28;20444;-74
2023/04/19 13:17:41;;;;;;;4.93;2.13;;;;;;;;;;5228232;27;20048;-74
2023/04/19 13:20:12;;;;;;;9.40;2.03;;;;;;;;;;5229507;28;20036;-75
2023/04/19 13:22:43;;;;;;;3.43;1.60;;;;;;;;;;5230589;28;20498;-75
2023/04/19 13:25:15;;;;;;;4.23;1.67;;;;;;;;;;5229158;28;20109;-75
2023/04/19 13:27:46;;;;;;;4.17;2.03;;;;;;;;;;5229936;28;20398;-75
2023/04/19 13:30:17;;;;;;;6.00;2.30;;;;;;;;;;5227051;28;20037;-74
2023/04/19 13:32:48;;;;;;;2.80;2.10;;;;;;;;;;5229624;28;20018;-74
2023/04/19 13:35:20;;;;;;;6.10;2.73;;;;;;;;;;5214920;28;20014;-73
2023/04/19 13:37:52;;;;;;;2.70;1.87;;;;;;;;;;5216872;28;20461;-74
2023/04/19 13:40:23;;;;;;;5.10;2.20;;;;;;;;;;5228731;28;20036;-74
2023/04/19 13:42:55;;;;;;;1.97;1.57;;;;;;;;;;5228151;27;20031;-75
2023/04/19 13:45:26;;;;;;;8.37;2.33;;;;;;;;;;5229902;28;20454;-74
2023/04/19 13:47:58;;;;;;;4.47;2.13;;;;;;;;;;5229929;28;20018;-75
2023/04/19 13:50:29;;;;;;;4.97;2.07;;;;;;;;;;5312266;27;20034;-75
2023/04/19 13:53:00;;;;;;;5.80;2.20;;;;;;;;;;5325713;27;20019;-75
2023/04/19 13:55:32;;;;;;;4.30;2.80;;;;;;;;;;5228237;28;20044;-75
2023/04/19 13:58:03;;;;;;;6.10;2.30;;;;;;;;;;5229508;28;20018;-75
2023/04/19 14:00:34;;;;;;;4.73;2.57;;;;;;;;;;5229550;28;20053;-75
2023/04/19 14:03:05;;;;;;;5.73;2.27;;;;;;;;;;5229196;28;20024;-75
2023/04/19 14:05:36;;;;;;;3.93;2.30;;;;;;;;;;5228966;28;20029;-74
2023/04/19 14:08:08;;;;;;;5.73;2.30;;;;;;;;;;5227192;28;20052;-74
2023/04/19 14:10:39;;;;;;;9.00;2.40;;;;;;;;;;5228223;28;20483;-74
2023/04/19 14:13:10;;;;;;;4.87;2.30;;;;;;;;;;5228396;28;20082;-75
2023/04/19 14:15:42;;;;;;;5.23;2.40;;;;;;;;;;5228161;28;20020;-75
2023/04/19 14:18:13;;;;;;;8.03;2.53;;;;;;;;;;5227995;28;20025;-75
2023/04/19 14:20:44;;;;;;;5.63;2.47;;;;;;;;;;5226542;28;20033;-75
2023/04/19 14:23:15;;;;;;;8.73;2.27;;;;;;;;;;5228870;28;20021;-75
2023/04/19 14:25:46;;;;;;;2.90;2.10;;;;;;;;;;5226474;28;20553;-75
2023/04/19 14:28:18;;;;;;;6.57;2.40;;;;;;;;;;5227004;28;20036;-76
2023/04/19 14:30:49;;;;;;;6.77;2.60;;;;;;;;;;5228613;28;20089;-76
2023/04/19 14:33:20;;;;;;;10.60;2.40;;;;;;;;;;5226696;28;20029;-76
2023/04/19 14:35:52;;;;;;;4.03;2.30;;;;;;;;;;5228145;28;20025;-74
2023/04/19 14:38:23;;;;;;;7.13;2.77;;;;;;;;;;5228048;28;20017;-74
2023/04/19 14:40:55;;;;;;;8.80;2.80;;;;;;;;;;5227816;28;20082;-74
2023/04/19 14:43:26;;;;;;;4.33;2.40;;;;;;;;;;5228332;28;20381;-74
2023/04/19 14:45:57;;;;;;;5.40;2.87;;;;;;;;;;5228231;28;20034;-74
2023/04/19 14:48:28;;;;;;;6.93;3.40;;;;;;;;;;5226239;28;20037;-74
2023/04/19 14:51:00;;;;;;;5.03;2.57;;;;;;;;;;5227668;28;20648;-74
2023/04/19 14:53:31;;;;;;;6.67;3.30;;;;;;;;;;5227164;28;20038;-75
2023/04/19 14:56:05;;;;;;;7.17;3.23;;;;;;;;;;5225586;28;20434;-75
2023/04/19 14:58:37;;;;;;;5.43;2.80;;;;;;;;;;5228489;28;20021;-75
2023/04/19 15:01:11;;;;;;;6.13;3.03;;;;;;;;;;5228973;28;20024;-74
2023/04/19 15:03:43;;;;;;;5.10;3.13;;;;;;;;;;5227717;28;20086;-74
2023/04/19 15:06:14;;;;;;;11.80;3.27;;;;;;;;;;5227192;28;20014;-74